Time;durP1;ratioP1;P1;durP2;ratioP2;P2;SDS_P1;SDS_P2;PMS_P1;PMS_P2;Temp;Humidity;BMP_temperature;BMP_pressure;BME280_temperature;BME280_humidity;BME280_pressure;Samples;Min_cycle;Max_cycle;Signal;HPM_P1;HPM_P2
2021/04/02 00:02:26;;;;;;;10.70;7.72;;;7.00;99.90;;;;;;4969510;28;20027;-57
2021/04/02 00:04:52;;;;;;;12.70;6.72;;;6.90;99.90;;;;;;4916396;28;20098;-56
2021/04/02 00:07:17;;;;;;;11.05;7.45;;;6.90;99.90;;;;;;4957849;28;20028;-54
2021/04/02 00:09:43;;;;;;;13.35;7.05;;;7.00;99.90;;;;;;4969211;28;20035;-53
2021/04/02 00:12:09;;;;;;;11.40;6.82;;;7.00;99.90;;;;;;4964738;28;20030;-56
2021/04/02 00:14:35;;;;;;;11.02;6.40;;;7.00;99.90;;;;;;4970044;28;20034;-57
2021/04/02 00:17:01;;;;;;;14.77;6.65;;;7.00;99.90;;;;;;4965321;28;20085;-57
2021/04/02 00:19:27;;;;;;;12.75;7.30;;;6.90;99.90;;;;;;4968189;28;20651;-56
2021/04/02 00:21:52;;;;;;;11.50;7.53;;;7.00;99.90;;;;;;4968268;28;20034;-55
2021/04/02 00:24:18;;;;;;;10.73;7.35;;;6.90;99.90;;;;;;4960043;28;20042;-57
2021/04/02 00:26:44;;;;;;;14.32;7.80;;;6.90;99.90;;;;;;4971341;28;20034;-57
2021/04/02 00:29:09;;;;;;;13.05;7.72;;;6.80;99.90;;;;;;4970416;28;20396;-57
2021/04/02 00:31:35;;;;;;;13.35;7.28;;;6.80;99.90;;;;;;4970558;28;20030;-53
2021/04/02 00:34:02;;;;;;;13.05;7.03;;;6.80;99.90;;;;;;4968845;28;20134;-56
2021/04/02 00:36:28;;;;;;;11.70;7.30;;;6.70;99.90;;;;;;4969075;28;20035;-56
2021/04/02 00:38:53;;;;;;;11.15;7.20;;;6.70;99.90;;;;;;4965945;28;20400;-57
2021/04/02 00:41:20;;;;;;;10.85;7.30;;;6.60;99.90;;;;;;4957005;28;20504;-57
2021/04/02 00:43:49;;;;;;;13.25;7.93;;;6.60;99.90;;;;;;4970509;28;20031;-55
2021/04/02 00:46:18;;;;;;;12.27;8.00;;;6.50;99.90;;;;;;4968458;28;20091;-56
2021/04/02 00:48:44;;;;;;;11.40;7.03;;;6.50;99.90;;;;;;4953096;28;20023;-54
2021/04/02 00:51:20;;;;;;;14.07;8.07;;;6.40;99.90;;;;;;4961550;28;20031;-57
2021/04/02 00:53:45;;;;;;;10.23;7.18;;;6.40;99.90;;;;;;4972525;28;20086;-55
2021/04/02 00:56:12;;;;;;;10.07;7.05;;;6.50;99.90;;;;;;4975159;28;20027;-58
2021/04/02 00:58:39;;;;;;;14.18;7.75;;;6.50;99.90;;;;;;4973740;28;20408;-58
2021/04/02 01:01:07;;;;;;;14.20;8.13;;;6.50;99.90;;;;;;4972785;28;20030;-55
2021/04/02 01:03:33;;;;;;;12.70;7.93;;;6.60;99.90;;;;;;4972302;28;20023;-56
2021/04/02 01:06:03;;;;;;;10.52;7.28;;;6.60;99.90;;;;;;4974190;28;20027;-56
2021/04/02 01:08:33;;;;;;;13.93;7.93;;;6.70;99.90;;;;;;4973061;28;20030;-55
2021/04/02 01:11:02;;;;;;;17.88;8.40;;;6.70;99.90;;;;;;4973799;28;20033;-56
2021/04/02 01:13:34;;;;;;;14.13;7.75;;;6.80;99.90;;;;;;4973171;28;20027;-54
2021/04/02 01:16:02;;;;;;;16.75;7.78;;;6.80;99.90;;;;;;4959062;28;20027;-55
2021/04/02 01:18:31;;;;;;;14.00;8.98;;;6.80;99.90;;;;;;4973533;28;20031;-57
2021/04/02 01:21:00;;;;;;;12.93;8.80;;;6.80;99.90;;;;;;4973319;28;20069;-56
2021/04/02 01:23:38;;;;;;;13.55;8.40;;;6.80;99.90;;;;;;4967987;28;20034;-55
2021/04/02 01:26:19;;;;;;;10.20;8.02;;;6.80;99.90;;;;;;4973601;28;20027;-56
2021/04/02 01:28:44;;;;;;;17.27;8.40;;;6.80;99.90;;;;;;4969539;28;20369;-55
2021/04/02 01:31:11;;;;;;;21.45;9.00;;;6.80;99.90;;;;;;4971785;28;20023;-56
2021/04/02 01:33:38;;;;;;;15.30;9.57;;;6.80;99.90;;;;;;4969259;28;20018;-58
2021/04/02 01:36:05;;;;;;;14.18;8.32;;;6.80;99.90;;;;;;4963908;28;20121;-57
2021/04/02 01:38:35;;;;;;;14.65;9.52;;;6.80;99.90;;;;;;4974058;28;20109;-54
2021/04/02 01:41:04;;;;;;;12.95;9.20;;;6.80;99.90;;;;;;4973382;28;20033;-55
2021/04/02 01:43:41;;;;;;;14.25;9.63;;;6.80;99.90;;;;;;4973239;28;20026;-57
2021/04/02 01:46:08;;;;;;;14.82;8.90;;;6.80;99.90;;;;;;4957884;28;20082;-58
2021/04/02 01:48:37;;;;;;;14.75;8.93;;;6.70;99.90;;;;;;4968584;28;20047;-55
2021/04/02 01:51:04;;;;;;;18.20;10.80;;;6.70;99.90;;;;;;4970673;28;20033;-55
2021/04/02 01:53:34;;;;;;;15.35;9.52;;;6.80;99.90;;;;;;4954965;28;20484;-56
2021/04/02 01:56:01;;;;;;;13.10;8.68;;;6.70;99.90;;;;;;4963254;28;20027;-54
2021/04/02 01:58:27;;;;;;;14.43;9.00;;;6.70;99.90;;;;;;4961718;28;20031;-58
2021/04/02 02:00:57;;;;;;;14.35;9.07;;;6.60;99.90;;;;;;4972295;28;20031;-54
2021/04/02 02:03:24;;;;;;;19.27;9.20;;;6.60;99.90;;;;;;4971728;28;20035;-55
2021/04/02 02:05:53;;;;;;;16.70;9.65;;;6.60;99.90;;;;;;4932427;28;20050;-55
2021/04/02 02:08:21;;;;;;;17.20;9.50;;;6.50;99.90;;;;;;4961996;28;20039;-56
2021/04/02 02:10:48;;;;;;;18.83;10.43;;;6.50;99.90;;;;;;4972686;28;20097;-56
2021/04/02 02:13:16;;;;;;;17.25;10.35;;;6.30;99.90;;;;;;4968768;28;20118;-57
2021/04/02 02:15:42;;;;;;;20.98;11.27;;;6.30;99.90;;;;;;4967408;28;20505;-56
2021/04/02 02:18:13;;;;;;;18.20;10.95;;;6.20;99.90;;;;;;4966951;28;20476;-59
2021/04/02 02:20:42;;;;;;;15.50;10.30;;;6.20;99.90;;;;;;4972633;28;20023;-56
2021/04/02 02:23:08;;;;;;;16.60;9.85;;;6.10;99.90;;;;;;4969570;28;20118;-58
2021/04/02 02:25:34;;;;;;;16.33;10.73;;;6.00;99.90;;;;;;4972315;28;20050;-57
2021/04/02 02:27:59;;;;;;;17.42;10.50;;;5.90;99.90;;;;;;4971912;28;20031;-53
2021/04/02 02:30:31;;;;;;;18.90;10.07;;;5.80;99.90;;;;;;4972404;28;20366;-55
2021/04/02 02:32:57;;;;;;;15.07;10.10;;;5.90;99.90;;;;;;4970583;28;20031;-53
2021/04/02 02:35:23;;;;;;;15.02;9.95;;;5.80;99.90;;;;;;4971654;28;20035;-55
2021/04/02 02:37:51;;;;;;;15.88;10.75;;;5.80;99.90;;;;;;4972310;28;20093;-57
2021/04/02 02:40:23;;;;;;;15.00;10.13;;;5.80;99.90;;;;;;4972714;28;20369;-57
2021/04/02 02:42:50;;;;;;;17.50;10.85;;;5.70;99.90;;;;;;4967381;28;20037;-54
2021/04/02 02:45:17;;;;;;;20.88;10.65;;;5.70;99.90;;;;;;4972318;28;20499;-55
2021/04/02 02:47:42;;;;;;;17.45;10.38;;;5.70;99.90;;;;;;4957612;28;20504;-57
2021/04/02 02:50:13;;;;;;;17.02;10.38;;;5.70;99.90;;;;;;4971918;28;20026;-56
2021/04/02 02:52:39;;;;;;;16.05;10.70;;;5.70;99.90;;;;;;4971785;28;20050;-56
2021/04/02 02:55:06;;;;;;;17.77;10.90;;;5.70;99.90;;;;;;4962068;28;20043;-57
2021/04/02 02:57:33;;;;;;;16.23;10.45;;;5.70;99.90;;;;;;4948318;28;20030;-58
2021/04/02 03:00:06;;;;;;;14.27;10.10;;;5.70;99.90;;;;;;4972133;28;20038;-56
2021/04/02 03:02:31;;;;;;;17.38;9.98;;;5.70;99.90;;;;;;4971596;28;20082;-54
2021/04/02 03:04:58;;;;;;;16.75;10.48;;;5.70;99.90;;;;;;4973011;28;20077;-56
2021/04/02 03:07:25;;;;;;;23.30;9.68;;;5.70;99.90;;;;;;4971454;28;20022;-56
2021/04/02 03:09:51;;;;;;;17.40;10.13;;;5.70;99.90;;;;;;4971824;28;20266;-54
2021/04/02 03:12:18;;;;;;;13.77;9.98;;;5.70;99.90;;;;;;4961489;28;20023;-55
2021/04/02 03:14:45;;;;;;;14.98;10.20;;;5.70;99.90;;;;;;4969182;28;20506;-57
2021/04/02 03:17:11;;;;;;;16.85;11.85;;;5.70;99.90;;;;;;4959989;28;20035;-58
2021/04/02 03:19:39;;;;;;;17.98;10.52;;;5.60;99.90;;;;;;4966191;28;20038;-58
2021/04/02 03:22:07;;;;;;;15.05;9.63;;;5.70;99.90;;;;;;4969882;28;20058;-55
2021/04/02 03:24:36;;;;;;;14.68;9.80;;;5.70;99.90;;;;;;4971076;28;20042;-55
2021/04/02 03:27:02;;;;;;;18.90;9.55;;;5.70;99.90;;;;;;4969545;28;20023;-54
2021/04/02 03:29:28;;;;;;;18.08;10.55;;;5.70;99.90;;;;;;4971493;28;20022;-54
2021/04/02 03:31:58;;;;;;;18.25;10.43;;;5.70;99.90;;;;;;4969865;28;20026;-56
2021/04/02 03:34:26;;;;;;;14.43;10.55;;;5.70;99.90;;;;;;4970315;28;20031;-55
2021/04/02 03:36:55;;;;;;;17.02;10.40;;;5.70;99.90;;;;;;4962354;28;20029;-54
2021/04/02 03:39:25;;;;;;;15.23;10.07;;;5.70;99.90;;;;;;4971334;28;20042;-57
2021/04/02 03:41:54;;;;;;;14.90;10.07;;;5.70;99.90;;;;;;4967684;28;20026;-56
2021/04/02 03:44:23;;;;;;;19.92;10.13;;;5.70;99.90;;;;;;4970236;28;20042;-55
2021/04/02 03:46:50;;;;;;;16.60;10.43;;;5.70;99.90;;;;;;4944752;28;20524;-54
2021/04/02 03:49:21;;;;;;;22.10;11.35;;;5.70;99.90;;;;;;4967981;28;20018;-55
2021/04/02 03:51:48;;;;;;;16.35;10.80;;;5.70;99.90;;;;;;4970336;28;20551;-57
2021/04/02 03:54:14;;;;;;;16.75;11.77;;;5.70;99.90;;;;;;4965541;28;20023;-53
2021/04/02 03:56:45;;;;;;;15.40;10.75;;;5.60;99.90;;;;;;4958337;28;20037;-55
2021/04/02 03:59:12;;;;;;;21.15;10.75;;;5.60;99.90;;;;;;4966334;28;20110;-55
2021/04/02 04:01:43;;;;;;;15.50;10.93;;;5.60;99.90;;;;;;4961682;28;20031;-55
2021/04/02 04:04:10;;;;;;;15.48;10.75;;;5.70;99.90;;;;;;4959609;28;20035;-57
2021/04/02 04:06:37;;;;;;;19.92;10.55;;;5.70;99.90;;;;;;4965595;28;20089;-57
2021/04/02 04:09:11;;;;;;;18.42;10.55;;;5.70;99.90;;;;;;4962058;28;20570;-57
2021/04/02 04:11:39;;;;;;;14.88;10.60;;;5.80;99.90;;;;;;4966443;28;20554;-57
2021/04/02 04:14:06;;;;;;;14.98;10.55;;;5.80;99.90;;;;;;4962835;28;20035;-57
2021/04/02 04:16:35;;;;;;;19.33;10.43;;;5.90;99.90;;;;;;4963452;28;20030;-54
2021/04/02 04:19:03;;;;;;;14.73;10.30;;;6.00;99.90;;;;;;4969164;28;20034;-57
2021/04/02 04:21:38;;;;;;;18.60;10.25;;;6.00;99.90;;;;;;4970699;28;20031;-58
2021/04/02 04:24:04;;;;;;;;;;;6.00;99.90;;;;;;4969666;28;20027;-56
2021/04/02 04:26:30;;;;;;;15.35;9.82;;;6.00;99.90;;;;;;4969524;28;19909;-57
2021/04/02 04:28:58;;;;;;;15.95;10.25;;;6.10;99.90;;;;;;4969122;28;20384;-58
2021/04/02 04:31:24;;;;;;;17.50;9.68;;;6.10;99.90;;;;;;4969596;28;20027;-56
2021/04/02 04:33:53;;;;;;;14.02;9.55;;;6.10;99.90;;;;;;4969275;28;20608;-56
2021/04/02 04:36:20;;;;;;;14.68;9.93;;;6.10;99.90;;;;;;4952704;28;20519;-54
2021/04/02 04:38:47;;;;;;;13.75;9.23;;;6.20;99.90;;;;;;4969801;28;20249;-58
2021/04/02 04:41:14;;;;;;;15.82;8.63;;;6.20;99.90;;;;;;4964984;28;20030;-56
2021/04/02 04:43:43;;;;;;;15.50;9.52;;;6.10;99.90;;;;;;4969882;28;20042;-57
2021/04/02 04:46:09;;;;;;;13.95;8.75;;;6.20;99.90;;;;;;4970322;28;20018;-54
2021/04/02 04:48:34;;;;;;;12.70;8.55;;;6.20;99.90;;;;;;4932543;28;20035;-58
2021/04/02 04:51:00;;;;;;;18.35;10.00;;;6.20;99.90;;;;;;4961181;28;20026;-56
2021/04/02 04:53:29;;;;;;;11.50;7.95;;;6.20;99.90;;;;;;4968938;28;20026;-56
2021/04/02 04:55:59;;;;;;;12.73;8.07;;;6.20;99.90;;;;;;4957714;28;20026;-54
2021/04/02 04:58:29;;;;;;;11.50;8.30;;;6.20;99.90;;;;;;4969518;28;20027;-62
2021/04/02 05:00:56;;;;;;;11.57;7.03;;;6.20;99.90;;;;;;4969712;28;20815;-53
2021/04/02 05:03:24;;;;;;;11.57;7.63;;;6.30;99.90;;;;;;4968092;28;20034;-56
2021/04/02 05:05:54;;;;;;;11.18;6.45;;;6.30;99.90;;;;;;4963566;28;20031;-58
2021/04/02 05:08:38;;;;;;;10.38;6.13;;;6.30;99.90;;;;;;4968751;28;20037;-57
2021/04/02 05:11:06;;;;;;;10.02;6.43;;;6.20;99.90;;;;;;4966761;28;20056;-59
2021/04/02 05:13:32;;;;;;;13.60;6.38;;;6.20;99.90;;;;;;4960986;28;20049;-56
2021/04/02 05:15:59;;;;;;;12.10;6.25;;;6.30;99.90;;;;;;4970570;28;20376;-57
2021/04/02 05:18:28;;;;;;;7.72;5.35;;;6.20;99.90;;;;;;4969224;28;20023;-57
2021/04/02 05:20:54;;;;;;;15.88;6.45;;;6.20;99.90;;;;;;4967088;28;20038;-57
2021/04/02 05:23:20;;;;;;;9.07;6.00;;;6.20;99.90;;;;;;4969934;28;20516;-57
2021/04/02 05:25:46;;;;;;;9.98;6.45;;;6.30;99.90;;;;;;4970306;28;20037;-55
2021/04/02 05:28:11;;;;;;;9.27;6.35;;;6.30;99.90;;;;;;4969526;28;20118;-56
2021/04/02 05:30:37;;;;;;;15.70;6.65;;;6.30;99.90;;;;;;4970198;28;20034;-55
2021/04/02 05:33:04;;;;;;;9.13;5.72;;;6.30;99.90;;;;;;4958202;28;20027;-57
2021/04/02 05:35:30;;;;;;;12.52;6.53;;;6.30;99.90;;;;;;4965684;28;20103;-53
2021/04/02 05:37:56;;;;;;;14.25;7.38;;;6.20;99.90;;;;;;4965816;28;20027;-56
2021/04/02 05:40:21;;;;;;;11.07;6.82;;;6.30;99.90;;;;;;4975938;28;20042;-56
2021/04/02 05:42:54;;;;;;;13.93;7.32;;;6.30;99.90;;;;;;4968956;28;21903;-59
2021/04/02 05:45:21;;;;;;;15.20;7.07;;;6.20;99.90;;;;;;4975126;28;20023;-57
2021/04/02 05:47:51;;;;;;;14.23;7.22;;;6.20;99.90;;;;;;4931583;28;20044;-58
2021/04/02 05:50:17;;;;;;;12.20;7.97;;;6.30;99.90;;;;;;4960756;28;20019;-56
2021/04/02 05:52:47;;;;;;;10.25;6.18;;;6.30;99.90;;;;;;4957858;28;20043;-54
2021/04/02 05:55:13;;;;;;;11.65;7.00;;;6.30;99.90;;;;;;4965525;28;20033;-55
2021/04/02 05:57:40;;;;;;;17.10;8.20;;;6.30;99.90;;;;;;4963800;28;20132;-53
2021/04/02 06:00:06;;;;;;;14.45;8.25;;;6.30;99.90;;;;;;4973351;28;20035;-54
2021/04/02 06:02:33;;;;;;;14.30;8.07;;;6.30;99.90;;;;;;4960432;28;20027;-53
2021/04/02 06:05:00;;;;;;;13.68;7.25;;;6.30;99.90;;;;;;4968760;28;20019;-56
2021/04/02 06:07:26;;;;;;;16.17;7.70;;;6.30;99.90;;;;;;4966316;28;20023;-56
2021/04/02 06:09:51;;;;;;;15.15;8.52;;;6.30;99.90;;;;;;4958935;28;20037;-57
2021/04/02 06:12:17;;;;;;;12.80;7.43;;;6.30;99.90;;;;;;4961905;28;20027;-55
2021/04/02 06:14:43;;;;;;;11.32;7.60;;;6.30;99.90;;;;;;4957512;28;20027;-55
2021/04/02 06:17:09;;;;;;;13.32;7.45;;;6.30;99.90;;;;;;4964467;28;20027;-52
2021/04/02 06:19:35;;;;;;;11.90;7.88;;;6.40;99.90;;;;;;4964581;28;20045;-53
2021/04/02 06:22:00;;;;;;;15.05;8.35;;;6.40;99.90;;;;;;4970850;28;20035;-54
2021/04/02 06:24:42;;;;;;;15.00;8.15;;;6.40;99.90;;;;;;4972729;28;20389;-52
2021/04/02 06:27:10;;;;;;;16.83;7.85;;;6.40;99.90;;;;;;4971140;28;20066;-53
2021/04/02 06:29:41;;;;;;;14.23;7.85;;;6.40;99.90;;;;;;4972878;28;20019;-52
2021/04/02 06:32:10;;;;;;;12.38;7.75;;;6.40;99.90;;;;;;4969669;28;20020;-51
2021/04/02 06:34:47;;;;;;;15.02;7.55;;;6.40;99.90;;;;;;4972631;28;20437;-53
2021/04/02 06:37:17;;;;;;;14.30;8.60;;;6.40;99.90;;;;;;4961734;28;20031;-56
2021/04/02 06:39:53;;;;;;;16.52;7.45;;;6.50;99.90;;;;;;4969985;28;20120;-55
2021/04/02 06:42:33;;;;;;;12.63;6.85;;;6.60;99.90;;;;;;4961041;28;20032;-56
2021/04/02 06:45:08;;;;;;;9.10;5.57;;;6.70;99.90;;;;;;4964043;28;20027;-57
2021/04/02 06:47:35;;;;;;;10.80;7.03;;;6.70;99.90;;;;;;4931287;28;20044;-54
2021/04/02 06:50:12;;;;;;;10.55;7.00;;;6.80;99.90;;;;;;4965399;28;20115;-54
2021/04/02 06:52:38;;;;;;;11.00;6.43;;;6.80;99.90;;;;;;4970923;28;20142;-56
2021/04/02 06:55:05;;;;;;;11.82;7.00;;;6.70;99.90;;;;;;4942865;28;20035;-59
2021/04/02 06:57:33;;;;;;;14.98;6.50;;;6.70;99.90;;;;;;4971483;28;20074;-54
2021/04/02 06:59:59;;;;;;;10.00;6.93;;;6.80;99.90;;;;;;4972523;28;20026;-56
2021/04/02 07:02:27;;;;;;;13.00;6.35;;;6.90;99.90;;;;;;4962467;28;20027;-57
2021/04/02 07:04:55;;;;;;;14.18;7.22;;;6.90;99.90;;;;;;4967012;28;20102;-56
2021/04/02 07:07:21;;;;;;;13.43;6.15;;;6.90;99.90;;;;;;4966845;28;20057;-54
2021/04/02 07:09:49;;;;;;;10.38;6.65;;;6.90;99.90;;;;;;4971711;28;20438;-55
2021/04/02 07:12:17;;;;;;;14.05;6.60;;;6.90;99.90;;;;;;4963556;28;20128;-55
2021/04/02 07:14:44;;;;;;;13.93;6.88;;;6.90;99.90;;;;;;4970570;28;20031;-57
2021/04/02 07:17:10;;;;;;;11.68;6.25;;;7.00;99.90;;;;;;4971347;28;20027;-58
2021/04/02 07:19:37;;;;;;;9.02;5.78;;;7.00;99.90;;;;;;4958681;28;20023;-55
2021/04/02 07:22:04;;;;;;;9.88;5.70;;;7.10;99.90;;;;;;4970291;28;20045;-57
2021/04/02 07:24:30;;;;;;;9.23;6.10;;;7.10;99.90;;;;;;4964084;28;20109;-59
2021/04/02 07:26:56;;;;;;;8.88;5.18;;;7.20;99.90;;;;;;4968147;28;20608;-59
2021/04/02 07:29:23;;;;;;;8.63;4.57;;;7.30;99.90;;;;;;4969168;28;20154;-58
2021/04/02 07:31:50;;;;;;;8.80;4.82;;;7.30;99.90;;;;;;4955672;28;20579;-57
2021/04/02 07:34:16;;;;;;;11.02;5.45;;;7.30;99.90;;;;;;4970087;28;20042;-55
2021/04/02 07:36:45;;;;;;;11.50;5.35;;;7.40;99.90;;;;;;4954267;28;20144;-58
2021/04/02 07:39:11;;;;;;;10.55;5.60;;;7.40;99.90;;;;;;4966747;28;20457;-57
2021/04/02 07:41:39;;;;;;;13.13;5.78;;;7.40;99.90;;;;;;4958990;28;20026;-58
2021/04/02 07:44:06;;;;;;;8.85;5.43;;;7.40;99.90;;;;;;4969783;28;20035;-56
2021/04/02 07:46:33;;;;;;;13.23;5.43;;;7.50;99.90;;;;;;4967643;28;20034;-58
2021/04/02 07:49:09;;;;;;;10.90;5.47;;;7.50;99.90;;;;;;4926136;28;20045;-53
2021/04/02 07:51:43;;;;;;;8.30;5.47;;;7.70;99.90;;;;;;4968783;28;20027;-58
2021/04/02 07:54:21;;;;;;;6.22;4.32;;;7.80;99.90;;;;;;4961227;28;20034;-56
2021/04/02 07:56:50;;;;;;;8.90;5.88;;;7.90;99.90;;;;;;4965285;28;20034;-56
2021/04/02 07:59:16;;;;;;;9.50;4.90;;;8.00;99.90;;;;;;4963691;28;20034;-57
2021/04/02 08:02:01;;;;;;;8.85;4.45;;;8.00;99.90;;;;;;4974154;28;20035;-59
2021/04/02 08:04:41;;;;;;;5.82;4.28;;;8.30;99.90;;;;;;4968094;28;20026;-56
2021/04/02 08:07:17;;;;;;;7.03;4.60;;;8.60;99.90;;;;;;4970594;28;20508;-56
2021/04/02 08:09:51;;;;;;;9.02;4.85;;;8.50;99.90;;;;;;4967787;28;20038;-60
2021/04/02 08:12:20;;;;;;;5.45;3.88;;;8.40;99.90;;;;;;4959187;28;20433;-53
2021/04/02 08:14:50;;;;;;;5.47;3.88;;;8.30;99.90;;;;;;4969883;28;20034;-56
2021/04/02 08:17:23;;;;;;;7.75;4.15;;;8.40;99.90;;;;;;4959928;28;20027;-54
2021/04/02 08:19:48;;;;;;;10.82;4.28;;;8.40;99.90;;;;;;4971250;28;20046;-53
2021/04/02 08:22:16;;;;;;;5.55;3.90;;;8.50;99.90;;;;;;4969869;28;20034;-55
2021/04/02 08:24:49;;;;;;;6.57;4.20;;;8.50;99.90;;;;;;4970195;28;20031;-55
2021/04/02 08:27:15;;;;;;;8.45;5.63;;;8.70;99.90;;;;;;4968619;28;20027;-55
2021/04/02 08:29:44;;;;;;;6.13;4.38;;;8.90;99.90;;;;;;4968310;28;20030;-56
2021/04/02 08:32:14;;;;;;;8.00;4.38;;;9.00;99.90;;;;;;4957097;28;20121;-57
2021/04/02 08:34:40;;;;;;;6.22;4.20;;;9.20;99.90;;;;;;4964121;28;20743;-54
2021/04/02 08:37:11;;;;;;;5.65;3.88;;;9.40;99.90;;;;;;4951194;28;20024;-55
2021/04/02 08:39:37;;;;;;;7.18;3.88;;;9.50;99.60;;;;;;4955707;28;20031;-56
2021/04/02 08:42:08;;;;;;;8.57;5.13;;;9.50;99.20;;;;;;4963922;28;20074;-56
2021/04/02 08:44:37;;;;;;;7.00;3.92;;;9.50;99.10;;;;;;4965067;28;20550;-58
2021/04/02 08:47:08;;;;;;;6.63;4.32;;;9.60;98.30;;;;;;4956167;28;20149;-57
2021/04/02 08:49:45;;;;;;;16.02;4.45;;;9.50;98.90;;;;;;4942566;28;20050;-56
2021/04/02 08:52:17;;;;;;;8.90;4.55;;;9.30;99.60;;;;;;4962632;28;20019;-57
2021/04/02 08:54:45;;;;;;;7.07;4.15;;;9.20;99.90;;;;;;4964167;28;20027;-56
2021/04/02 08:57:12;;;;;;;5.45;4.30;;;9.40;99.70;;;;;;4963868;28;20026;-57
2021/04/02 08:59:40;;;;;;;5.95;4.47;;;9.50;99.50;;;;;;4966678;28;20035;-58
2021/04/02 09:02:06;;;;;;;6.13;4.00;;;9.50;99.00;;;;;;4966286;28;20106;-56
2021/04/02 09:04:32;;;;;;;7.05;3.80;;;9.40;99.20;;;;;;4952489;28;20104;-55
2021/04/02 09:06:58;;;;;;;9.18;4.90;;;9.70;99.00;;;;;;4965843;28;20073;-58
2021/04/02 09:09:29;;;;;;;7.07;3.88;;;9.80;98.50;;;;;;4970398;28;20027;-54
2021/04/02 09:11:55;;;;;;;8.68;4.97;;;9.80;98.50;;;;;;4970679;28;20480;-56
2021/04/02 09:14:22;;;;;;;6.93;4.38;;;9.50;98.80;;;;;;4976257;28;20034;-55
2021/04/02 09:16:49;;;;;;;8.07;4.55;;;9.40;98.60;;;;;;4973305;28;20023;-55
2021/04/02 09:19:16;;;;;;;6.88;4.68;;;9.10;99.00;;;;;;4968425;28;20165;-52
2021/04/02 09:21:42;;;;;;;7.13;5.03;;;9.10;99.10;;;;;;4969093;28;20027;-56
2021/04/02 09:24:09;;;;;;;6.65;4.82;;;9.10;99.50;;;;;;4971005;28;20019;-57
2021/04/02 09:26:38;;;;;;;6.93;4.25;;;8.90;99.60;;;;;;4970879;28;20100;-58
2021/04/02 09:29:04;;;;;;;10.63;5.40;;;9.10;99.60;;;;;;4967603;28;20019;-55
2021/04/02 09:31:33;;;;;;;15.57;4.47;;;9.30;99.40;;;;;;4973383;28;20127;-58
2021/04/02 09:34:04;;;;;;;8.25;4.22;;;9.50;98.80;;;;;;4972737;28;20049;-53
2021/04/02 09:36:35;;;;;;;7.75;4.85;;;9.40;98.40;;;;;;4973622;28;20636;-54
2021/04/02 09:39:27;;;;;;;10.27;4.93;;;9.60;98.40;;;;;;4966797;28;20031;-56
2021/04/02 09:41:58;;;;;;;9.80;4.90;;;9.90;98.00;;;;;;4969454;28;20023;-53
2021/04/02 09:44:26;;;;;;;8.40;4.43;;;10.50;97.10;;;;;;4967422;28;20038;-57
2021/04/02 09:47:02;;;;;;;9.02;4.65;;;11.00;96.20;;;;;;4973283;28;20023;-55
2021/04/02 09:49:28;;;;;;;7.78;4.65;;;11.40;95.70;;;;;;4940431;28;20130;-55
2021/04/02 09:51:55;;;;;;;6.53;4.57;;;12.10;94.30;;;;;;4970471;28;20174;-58
2021/04/02 09:54:24;;;;;;;8.75;4.95;;;12.90;93.40;;;;;;4961662;28;20417;-54
2021/04/02 09:56:51;;;;;;;7.60;4.13;;;12.50;92.10;;;;;;4957510;28;20026;-56
2021/04/02 09:59:16;;;;;;;7.18;4.47;;;12.20;93.20;;;;;;4955664;28;20031;-57
2021/04/02 10:01:43;;;;;;;9.45;5.30;;;11.60;93.50;;;;;;4969973;28;20037;-54
2021/04/02 10:04:10;;;;;;;11.20;5.10;;;11.60;93.90;;;;;;4963385;28;20423;-57
2021/04/02 10:06:37;;;;;;;8.43;5.25;;;11.80;94.40;;;;;;4960874;28;20027;-54
2021/04/02 10:09:04;;;;;;;9.63;5.30;;;11.30;94.30;;;;;;4973052;28;20042;-56
2021/04/02 10:11:31;;;;;;;9.43;5.60;;;11.20;94.20;;;;;;4961245;28;20089;-55
2021/04/02 10:13:56;;;;;;;8.80;5.35;;;11.00;94.10;;;;;;4967067;28;20019;-56
2021/04/02 10:16:22;;;;;;;10.35;5.25;;;10.40;94.70;;;;;;4972858;28;20122;-55
2021/04/02 10:18:50;;;;;;;8.88;5.30;;;10.30;95.50;;;;;;4973155;28;20031;-55
2021/04/02 10:21:17;;;;;;;8.07;5.03;;;10.40;96.00;;;;;;4974357;28;20026;-57
2021/04/02 10:23:42;;;;;;;13.13;4.85;;;10.70;94.90;;;;;;4972320;28;20093;-52
2021/04/02 10:26:08;;;;;;;7.22;4.60;;;11.50;94.90;;;;;;4965036;28;20018;-54
2021/04/02 10:28:34;;;;;;;8.68;5.18;;;11.40;93.70;;;;;;4971023;28;20516;-52
2021/04/02 10:31:00;;;;;;;10.57;5.30;;;11.00;94.00;;;;;;4965230;28;20113;-53
2021/04/02 10:33:26;;;;;;;11.13;5.40;;;10.80;94.70;;;;;;4969941;28;20480;-55
2021/04/02 10:35:52;;;;;;;8.48;5.40;;;10.70;94.80;;;;;;4972904;28;20039;-56
2021/04/02 10:38:18;;;;;;;7.25;4.90;;;10.60;94.90;;;;;;4965116;28;20022;-56
2021/04/02 10:40:44;;;;;;;9.50;5.75;;;10.70;94.80;;;;;;4972806;28;20370;-57
2021/04/02 10:43:10;;;;;;;8.85;5.93;;;11.00;94.40;;;;;;4962011;28;20019;-55
2021/04/02 10:45:35;;;;;;;12.90;6.35;;;11.10;94.40;;;;;;4972474;28;20023;-56
2021/04/02 10:48:03;;;;;;;11.10;6.00;;;11.10;93.80;;;;;;4954013;28;20937;-57
2021/04/02 10:50:29;;;;;;;11.02;6.25;;;11.30;93.90;;;;;;4948164;28;20102;-53
2021/04/02 10:52:56;;;;;;;10.70;6.22;;;11.20;94.00;;;;;;4969672;28;20019;-57
2021/04/02 10:55:22;;;;;;;15.40;8.35;;;11.10;94.30;;;;;;4966234;28;20034;-55
2021/04/02 10:57:48;;;;;;;16.02;9.52;;;11.00;94.20;;;;;;4972128;28;20113;-56
2021/04/02 11:00:15;;;;;;;18.58;10.18;;;10.60;95.40;;;;;;4972093;28;20133;-53
2021/04/02 11:02:41;;;;;;;21.58;11.23;;;10.40;95.60;;;;;;4971630;28;20081;-55
2021/04/02 11:05:08;;;;;;;19.25;10.13;;;10.30;96.00;;;;;;4972536;28;20364;-56
2021/04/02 11:07:34;;;;;;;20.00;10.93;;;10.20;96.30;;;;;;4971783;28;20034;-54
2021/04/02 11:10:00;;;;;;;22.95;10.07;;;10.10;96.70;;;;;;4972166;28;20039;-55
2021/04/02 11:12:28;;;;;;;19.52;8.85;;;10.60;96.40;;;;;;4971624;28;20027;-56
2021/04/02 11:14:55;;;;;;;15.35;9.85;;;10.70;95.20;;;;;;4972293;28;20019;-56
2021/04/02 11:17:24;;;;;;;16.92;9.85;;;10.80;95.00;;;;;;4969858;28;20058;-54
2021/04/02 11:19:52;;;;;;;17.98;10.25;;;10.80;95.10;;;;;;4971666;28;20046;-56
2021/04/02 11:22:18;;;;;;;21.20;11.13;;;10.80;95.10;;;;;;4970583;28;20046;-55
2021/04/02 11:24:43;;;;;;;13.13;8.10;;;10.70;94.50;;;;;;4972434;28;20027;-54
2021/04/02 11:27:09;;;;;;;15.73;9.30;;;10.40;94.40;;;;;;4970000;28;20033;-55
2021/04/02 11:29:37;;;;;;;13.85;7.78;;;10.40;95.10;;;;;;4967959;28;20025;-54
2021/04/02 11:32:06;;;;;;;15.20;9.38;;;10.50;94.70;;;;;;4963118;28;20027;-57
2021/04/02 11:34:32;;;;;;;11.77;7.18;;;10.40;94.80;;;;;;4962453;28;20043;-58
2021/04/02 11:36:59;;;;;;;12.85;8.05;;;10.40;94.60;;;;;;4966637;28;20030;-57
2021/04/02 11:39:25;;;;;;;12.85;7.70;;;10.60;94.80;;;;;;4964133;28;20031;-55
2021/04/02 11:41:50;;;;;;;13.55;7.03;;;10.60;94.80;;;;;;4968468;28;20357;-53
2021/04/02 11:44:16;;;;;;;13.40;6.75;;;10.50;95.10;;;;;;4969802;28;20054;-52
2021/04/02 11:46:41;;;;;;;9.93;6.75;;;10.40;94.90;;;;;;4970243;28;20051;-59
2021/04/02 11:49:07;;;;;;;11.15;6.68;;;10.30;94.30;;;;;;4945041;28;20077;-54
2021/04/02 11:51:33;;;;;;;12.95;6.25;;;10.40;94.40;;;;;;4965270;28;20477;-54
2021/04/02 11:53:59;;;;;;;12.88;7.18;;;10.80;94.80;;;;;;4970736;28;20030;-55
2021/04/02 11:56:24;;;;;;;11.35;6.32;;;10.90;93.70;;;;;;4970201;28;20023;-57
2021/04/02 11:58:50;;;;;;;11.73;6.38;;;11.20;93.40;;;;;;4969767;28;20038;-57
2021/04/02 12:01:15;;;;;;;13.30;7.20;;;11.30;93.50;;;;;;4963107;28;20027;-55
2021/04/02 12:03:41;;;;;;;13.93;8.13;;;10.80;93.20;;;;;;4968363;28;20257;-58
2021/04/02 12:06:07;;;;;;;10.63;7.00;;;10.80;93.90;;;;;;4970643;28;20595;-57
2021/04/02 12:08:32;;;;;;;14.30;8.45;;;11.20;93.60;;;;;;4970239;28;20097;-57
2021/04/02 12:10:58;;;;;;;14.73;7.82;;;11.60;93.10;;;;;;4970621;28;20029;-57
2021/04/02 12:13:24;;;;;;;12.48;7.85;;;11.70;93.00;;;;;;4963075;28;20038;-56
2021/04/02 12:15:50;;;;;;;14.60;8.23;;;11.50;92.90;;;;;;4968689;28;20041;-55
2021/04/02 12:18:15;;;;;;;16.08;8.20;;;11.50;93.30;;;;;;4970406;28;20030;-56
2021/04/02 12:20:41;;;;;;;19.85;11.07;;;11.40;92.70;;;;;;4970341;28;20019;-56
2021/04/02 12:23:06;;;;;;;11.93;8.15;;;11.40;92.50;;;;;;4970294;28;20031;-56
2021/04/02 12:25:32;;;;;;;13.80;7.35;;;11.10;93.40;;;;;;4970389;28;20029;-57
2021/04/02 12:27:58;;;;;;;13.85;7.90;;;11.20;93.30;;;;;;4968299;28;20019;-55
2021/04/02 12:30:23;;;;;;;16.33;8.15;;;11.50;92.40;;;;;;4969316;28;20034;-56
2021/04/02 12:32:49;;;;;;;15.57;9.32;;;11.20;93.00;;;;;;4969498;28;20481;-53
2021/04/02 12:35:15;;;;;;;16.80;8.60;;;11.20;92.70;;;;;;4978027;28;20023;-56
2021/04/02 12:37:42;;;;;;;20.08;7.40;;;11.10;92.20;;;;;;4979260;28;20034;-58
2021/04/02 12:40:13;;;;;;;19.05;10.20;;;11.00;92.60;;;;;;4970293;28;20031;-55
2021/04/02 12:42:39;;;;;;;13.88;6.55;;;10.80;93.00;;;;;;4970365;28;20022;-57
2021/04/02 12:45:09;;;;;;;11.27;5.75;;;10.50;93.30;;;;;;4969300;28;20027;-54
2021/04/02 12:47:35;;;;;;;8.57;4.70;;;10.10;94.00;;;;;;4961006;28;20383;-57
2021/04/02 12:50:01;;;;;;;10.80;5.22;;;10.40;93.10;;;;;;4955288;28;20043;-54